createdAt,value
2019-05-03T00:03:44.416Z,9.20
2019-05-03T00:09:28.453Z,9.30
2019-05-03T00:44:14.189Z,9.30
2019-05-03T00:49:45.312Z,9.30
2019-05-03T01:13:47.299Z,9.20
2019-05-03T01:31:56.778Z,9.10
2019-05-03T04:45:59.997Z,9.00
2019-05-03T04:51:19.011Z,7.80
2019-05-03T05:07:17.343Z,7.90
2019-05-03T05:12:46.556Z,8.00
2019-05-03T05:34:11.061Z,8.00
2019-05-03T05:39:36.493Z,8.20
2019-05-03T05:45:04.910Z,8.30
2019-05-03T05:50:29.040Z,8.20
2019-05-03T05:55:50.094Z,8.30
2019-05-03T06:01:11.120Z,8.30
2019-05-03T06:06:35.715Z,8.60
2019-05-03T06:12:05.426Z,8.70
2019-05-03T06:17:32.091Z,9.10
2019-05-03T06:23:00.558Z,9.60
2019-05-03T06:28:22.522Z,10.20
2019-05-03T06:33:44.705Z,11.40
2019-05-03T06:39:00.555Z,12.30
2019-05-03T06:44:29.163Z,11.50
2019-05-03T06:49:49.470Z,10.90
2019-05-03T06:55:11.522Z,11.10
2019-05-03T07:00:26.136Z,10.90
2019-05-03T07:05:30.170Z,10.90
2019-05-03T07:10:52.296Z,10.90
2019-05-03T07:16:10.064Z,10.90
2019-05-03T07:21:17.211Z,11.50
2019-05-03T07:26:26.423Z,12.40
2019-05-03T07:31:26.567Z,13.30
2019-05-03T07:36:38.694Z,14.40
2019-05-03T07:41:36.727Z,15.20
2019-05-03T07:46:50.847Z,15.10
2019-05-03T07:51:58.449Z,15.00
2019-05-03T07:57:07.741Z,14.80
2019-05-03T08:02:16.666Z,14.50
2019-05-03T08:07:27.797Z,14.40
2019-05-03T08:12:40.727Z,13.50
2019-05-03T08:17:48.157Z,13.60
2019-05-03T08:22:55.919Z,14.20
2019-05-03T08:27:49.239Z,14.50
2019-05-03T08:32:57.847Z,14.50
2019-05-03T08:37:58.714Z,13.50
2019-05-03T08:43:09.943Z,12.80
2019-05-03T08:48:16.385Z,13.50
2019-05-03T08:53:26.599Z,14.50
2019-05-03T08:58:27.518Z,15.20
2019-05-03T09:03:39.143Z,14.70
2019-05-03T09:08:47.621Z,13.90
2019-05-03T09:14:04.425Z,13.50
2019-05-03T09:19:21.189Z,13.20
2019-05-03T09:24:37.283Z,14.00
2019-05-03T09:30:55.673Z,14.60
2019-05-03T09:37:18.360Z,13.40
2019-05-03T09:42:16.485Z,12.60
2019-05-03T09:48:46.217Z,13.30
2019-05-03T09:53:47.998Z,14.40
2019-05-03T09:58:56.243Z,14.80
2019-05-03T10:05:56.771Z,15.00
2019-05-03T10:10:57.844Z,15.50
2019-05-03T10:16:05.740Z,15.20
2019-05-03T10:21:57.788Z,14.30
2019-05-03T10:27:06.045Z,14.00
2019-05-03T10:32:25.255Z,13.40
2019-05-03T10:37:42.638Z,13.20
2019-05-03T10:42:52.620Z,13.10
2019-05-03T10:48:05.832Z,12.90
2019-05-03T10:53:16.342Z,13.40
2019-05-03T10:58:26.592Z,14.40
2019-05-03T11:03:35.303Z,15.40
2019-05-03T11:08:42.443Z,15.80
2019-05-03T11:13:50.842Z,15.50
2019-05-03T11:19:00.847Z,14.70
2019-05-03T11:24:10.469Z,14.30
2019-05-03T11:29:01.483Z,14.70
2019-05-03T11:34:10.105Z,15.30
2019-05-03T11:39:17.239Z,16.30
2019-05-03T11:44:25.503Z,16.60
2019-05-03T11:49:29.805Z,16.00
2019-05-03T11:54:19.788Z,15.20
2019-05-03T11:59:27.524Z,15.10
2019-05-03T12:04:17.905Z,15.80
2019-05-03T12:09:10.236Z,15.70
2019-05-03T12:14:16.399Z,15.20
2019-05-03T12:19:21.491Z,14.90
2019-05-03T12:24:25.679Z,14.90
2019-05-03T12:29:21.585Z,15.70
2019-05-03T12:34:29.878Z,15.60
2019-05-03T12:39:30.884Z,15.10
2019-05-03T12:44:35.920Z,15.70
2019-05-03T12:49:37.030Z,15.70
2019-05-03T12:54:27.506Z,15.50
2019-05-03T12:59:28.362Z,15.20
2019-05-03T13:04:30.217Z,15.20
2019-05-03T13:09:31.865Z,15.20
2019-05-03T13:14:40.015Z,15.00
2019-05-03T13:19:30.247Z,15.00
2019-05-03T13:24:45.980Z,15.00
2019-05-03T13:29:38.109Z,15.00
2019-05-03T13:34:42.300Z,14.90
2019-05-03T13:39:37.960Z,14.70
2019-05-03T13:44:35.376Z,14.70
2019-05-03T13:49:40.008Z,14.90
2019-05-03T13:55:25.498Z,14.70
2019-05-03T14:00:27.703Z,14.50
2019-05-03T14:05:37.662Z,14.60
2019-05-03T14:10:38.681Z,14.50
2019-05-03T14:16:07.190Z,14.30
2019-05-03T14:21:12.472Z,14.00
2019-05-03T14:26:15.998Z,14.00
2019-05-03T14:31:08.995Z,13.90
2019-05-03T14:36:06.082Z,13.80
2019-05-03T14:41:00.014Z,13.70
2019-05-03T14:48:11.663Z,13.60
2019-05-03T14:53:26.489Z,13.40
2019-05-03T14:58:36.236Z,13.20
2019-05-03T15:04:11.666Z,13.10
2019-05-03T15:09:20.167Z,13.00
2019-05-03T15:14:47.703Z,13.00
2019-05-03T15:19:56.243Z,12.90
2019-05-03T15:25:40.156Z,12.80
2019-05-03T15:31:08.283Z,12.70
2019-05-03T15:36:16.321Z,12.70
2019-05-03T15:41:09.229Z,12.70
2019-05-03T15:46:11.857Z,12.60
2019-05-03T15:51:25.481Z,12.60
2019-05-03T15:56:18.584Z,12.60
2019-05-03T16:01:21.424Z,12.60
2019-05-03T16:06:16.453Z,12.60
2019-05-03T16:11:35.861Z,12.60
2019-05-03T16:16:27.416Z,12.60
2019-05-03T16:21:22.090Z,12.50
2019-05-03T16:26:36.444Z,12.20
2019-05-03T16:31:36.896Z,12.20
2019-05-03T16:36:37.033Z,12.10
2019-05-03T16:41:30.415Z,12.10
2019-05-03T16:46:36.314Z,11.80
2019-05-03T16:51:47.240Z,11.80
2019-05-03T16:56:39.696Z,11.90
2019-05-03T17:01:45.437Z,11.80
2019-05-03T17:06:49.860Z,11.80
2019-05-03T17:11:57.003Z,11.70
2019-05-03T17:16:52.885Z,11.60
2019-05-03T17:22:07.517Z,11.60
2019-05-03T17:27:02.237Z,11.50
2019-05-03T17:32:10.864Z,11.50
2019-05-03T17:37:57.916Z,11.40
2019-05-03T17:43:26.902Z,11.20
2019-05-03T17:48:21.043Z,11.10
2019-05-03T17:53:26.853Z,11.10
2019-05-03T17:59:16.016Z,11.00
2019-05-03T18:04:18.393Z,10.90
2019-05-03T18:09:39.654Z,10.90
2019-05-03T18:14:51.405Z,10.80
2019-05-03T18:19:48.457Z,10.80
2019-05-03T18:24:55.436Z,10.80
2019-05-03T18:30:16.189Z,10.80
2019-05-03T18:35:27.192Z,10.80
2019-05-03T18:40:35.284Z,10.70
2019-05-03T18:45:42.390Z,10.70
2019-05-03T18:51:18.820Z,10.60
2019-05-03T18:56:21.598Z,10.60
2019-05-03T19:01:29.256Z,10.50
2019-05-03T19:06:36.947Z,10.40
2019-05-03T19:11:52.327Z,10.30
2019-05-03T19:17:01.745Z,10.30
2019-05-03T19:22:16.490Z,10.10
2019-05-03T19:27:35.529Z,10.00
2019-05-03T19:32:49.896Z,10.00
2019-05-03T19:38:05.816Z,9.90
2019-05-03T19:48:41.190Z,9.90
2019-05-03T19:54:02.648Z,9.80
2019-05-03T19:59:28.130Z,9.80
2019-05-03T20:05:00.580Z,9.80
2019-05-03T20:22:48.705Z,9.70
2019-05-03T20:30:00.679Z,9.60
2019-05-03T20:38:25.527Z,9.50
2019-05-03T20:44:29.139Z,9.30
2019-05-03T20:50:18.103Z,9.20
2019-05-03T20:56:26.151Z,9.10
2019-05-03T21:24:52.327Z,9.00
2019-05-03T22:13:08.097Z,8.70
2019-05-03T22:32:51.767Z,8.30
2019-05-03T22:42:44.651Z,7.90
2019-05-03T22:48:47.561Z,7.80
2019-05-03T22:57:42.047Z,7.70
2019-05-03T23:12:20.584Z,7.50
2019-05-03T23:25:51.501Z,7.40
